createdAt,value
2023-05-14T00:03:06.244Z,58.08
2023-05-14T00:08:10.057Z,56.91
2023-05-14T00:13:14.948Z,57.84
2023-05-14T00:18:18.519Z,57.89
2023-05-14T00:23:22.916Z,57.18
2023-05-14T00:28:27.956Z,58.55
2023-05-14T00:33:31.568Z,58.85
2023-05-14T00:38:35.089Z,58.70
2023-05-14T00:43:40.112Z,57.57
2023-05-14T00:48:43.692Z,58.44
2023-05-14T00:53:47.625Z,58.94
2023-05-14T00:58:52.498Z,58.73
2023-05-14T01:03:58.113Z,57.48
2023-05-14T01:09:07.549Z,57.53
2023-05-14T01:14:19.938Z,57.66
2023-05-14T01:19:31.219Z,57.22
2023-05-14T01:24:36.245Z,57.02
2023-05-14T01:29:45.103Z,58.18
2023-05-14T01:34:49.012Z,56.92
2023-05-14T01:39:54.658Z,57.72
2023-05-14T01:44:58.138Z,57.97
2023-05-14T01:50:01.654Z,57.79
2023-05-14T01:55:07.929Z,56.94
2023-05-14T02:00:12.172Z,57.61
2023-05-14T02:05:15.741Z,57.79
2023-05-14T02:10:21.130Z,57.11
2023-05-14T02:15:24.787Z,57.10
2023-05-14T02:20:28.267Z,58.11
2023-05-14T02:25:33.165Z,57.86
2023-05-14T02:30:36.705Z,57.75
2023-05-14T02:35:40.238Z,58.30
2023-05-14T02:40:45.124Z,57.59
2023-05-14T02:45:48.730Z,57.71
2023-05-14T02:50:52.577Z,57.10
2023-05-14T02:55:57.525Z,56.75
2023-05-14T03:01:01.447Z,56.83
2023-05-14T03:06:06.173Z,56.34
2023-05-14T03:11:11.104Z,56.90
2023-05-14T03:16:14.685Z,56.42
2023-05-14T03:21:18.265Z,57.38
2023-05-14T03:26:23.183Z,57.65
2023-05-14T03:31:26.993Z,57.18
2023-05-14T03:36:30.585Z,57.77
2023-05-14T03:41:37.713Z,57.57
2023-05-14T03:46:41.230Z,57.74
2023-05-14T03:51:44.619Z,57.79
2023-05-14T03:56:49.497Z,58.08
2023-05-14T04:01:53.002Z,56.86
2023-05-14T04:06:56.486Z,57.23
2023-05-14T04:12:01.561Z,56.46
2023-05-14T04:17:05.345Z,57.45
2023-05-14T04:22:08.809Z,58.09
2023-05-14T04:27:15.655Z,56.55
2023-05-14T04:32:19.176Z,56.42
2023-05-14T04:37:22.628Z,56.85
2023-05-14T04:42:27.516Z,56.24
2023-05-14T04:47:31.127Z,56.56
2023-05-14T04:52:34.757Z,56.37
2023-05-14T04:57:39.729Z,55.97
2023-05-14T05:02:44.894Z,56.63
2023-05-14T05:07:48.484Z,56.91
2023-05-14T05:12:53.377Z,58.67
2023-05-14T05:17:56.993Z,58.74
2023-05-14T05:23:00.820Z,58.05
2023-05-14T05:28:05.921Z,59.23
2023-05-14T05:33:09.588Z,58.23
2023-05-14T05:38:13.081Z,58.51
2023-05-14T05:43:18.282Z,57.83
2023-05-14T05:48:22.052Z,58.22
2023-05-14T05:53:25.630Z,56.84
2023-05-14T05:58:30.771Z,58.18
2023-05-14T06:03:34.467Z,56.49
2023-05-14T06:08:37.947Z,57.28
2023-05-14T06:13:42.899Z,58.25
2023-05-14T06:18:46.693Z,56.90
2023-05-14T06:23:50.159Z,56.57
2023-05-14T06:28:55.102Z,56.41
2023-05-14T06:33:58.710Z,57.60
2023-05-14T06:39:02.324Z,56.71
2023-05-14T06:44:07.322Z,57.65
2023-05-14T06:49:10.910Z,56.87
2023-05-14T06:54:14.615Z,57.80
2023-05-14T06:59:19.656Z,56.72
2023-05-14T07:04:23.227Z,57.82
2023-05-14T07:09:26.822Z,56.71
2023-05-14T07:14:31.769Z,57.20
2023-05-14T07:19:35.329Z,56.87
2023-05-14T07:24:38.814Z,56.82
2023-05-14T07:29:43.765Z,57.12
2023-05-14T07:34:47.264Z,58.42
2023-05-14T07:39:50.764Z,57.02
2023-05-14T07:44:55.705Z,57.54
2023-05-14T07:49:59.442Z,58.37
2023-05-14T07:55:04.361Z,57.23
2023-05-14T08:00:10.632Z,58.21
2023-05-14T08:05:14.194Z,57.46
2023-05-14T08:10:17.733Z,57.92
2023-05-14T08:15:23.680Z,56.64
2023-05-14T08:20:28.521Z,57.05
2023-05-14T08:25:32.137Z,57.48
2023-05-14T08:30:37.210Z,56.45
2023-05-14T08:35:40.711Z,55.90
2023-05-14T08:40:44.483Z,57.92
2023-05-14T08:45:50.927Z,56.75
2023-05-14T08:50:54.592Z,57.91
2023-05-14T08:55:58.084Z,56.97
2023-05-14T09:01:02.977Z,56.46
2023-05-14T09:06:07.834Z,57.18
2023-05-14T09:11:11.376Z,56.22
2023-05-14T09:16:16.761Z,56.88
2023-05-14T09:21:20.282Z,56.13
2023-05-14T09:26:26.879Z,56.48
2023-05-14T09:31:33.580Z,55.59
2023-05-14T09:36:37.148Z,56.12
2023-05-14T09:41:40.695Z,56.37
2023-05-14T09:46:45.832Z,55.41
2023-05-14T09:51:50.143Z,56.62
2023-05-14T09:56:55.489Z,56.63
2023-05-14T10:02:01.073Z,55.22
2023-05-14T10:07:05.165Z,55.68
2023-05-14T10:12:09.720Z,56.67
2023-05-14T10:17:18.768Z,56.71
2023-05-14T10:22:25.380Z,56.08
2023-05-14T10:27:29.144Z,56.10
2023-05-14T10:32:34.260Z,55.43
2023-05-14T10:37:38.191Z,56.44
2023-05-14T10:42:43.682Z,56.67
2023-05-14T10:47:48.990Z,56.74
2023-05-14T10:52:53.002Z,57.29
2023-05-14T10:57:56.449Z,56.03
2023-05-14T11:03:01.990Z,56.40
2023-05-14T11:08:08.181Z,56.42
2023-05-14T11:13:11.841Z,55.77
2023-05-14T11:18:27.920Z,56.36
2023-05-14T11:23:31.741Z,55.89
2023-05-14T11:28:35.972Z,57.38
2023-05-14T11:33:41.353Z,57.39
2023-05-14T11:38:49.146Z,53.10
2023-05-14T11:43:52.710Z,52.77
2023-05-14T11:48:57.576Z,50.23
2023-05-14T11:54:01.122Z,48.90
2023-05-14T11:59:04.639Z,47.57
2023-05-14T12:04:09.606Z,50.24
2023-05-14T12:09:16.571Z,54.48
2023-05-14T12:14:22.077Z,54.06
2023-05-14T12:19:27.030Z,54.74
2023-05-14T12:24:30.937Z,52.00
2023-05-14T12:29:38.237Z,52.03
2023-05-14T12:34:43.089Z,54.26
2023-05-14T12:39:46.606Z,54.28
2023-05-14T12:44:50.109Z,54.71
2023-05-14T12:49:54.965Z,55.94
2023-05-14T12:54:58.441Z,56.37
2023-05-14T13:00:01.894Z,55.49
2023-05-14T13:05:07.214Z,55.29
2023-05-14T13:10:11.830Z,55.61
2023-05-14T13:15:16.007Z,54.96
2023-05-14T13:20:21.012Z,55.83
2023-05-14T13:25:25.167Z,56.01
2023-05-14T13:30:28.859Z,55.15
2023-05-14T13:35:34.813Z,56.15
2023-05-14T13:40:38.328Z,55.96
2023-05-14T13:45:42.230Z,55.94
2023-05-14T13:50:47.120Z,55.78
2023-05-14T13:55:50.892Z,54.90
2023-05-14T14:00:54.750Z,54.81
2023-05-14T14:05:59.713Z,54.62
2023-05-14T14:11:03.244Z,55.82
2023-05-14T14:16:07.379Z,55.66
2023-05-14T14:21:12.297Z,54.33
2023-05-14T14:26:16.020Z,55.43
2023-05-14T14:31:19.583Z,55.13
2023-05-14T14:36:24.533Z,54.76
2023-05-14T14:41:28.092Z,54.58
2023-05-14T14:46:31.600Z,54.91
2023-05-14T14:51:36.644Z,55.54
2023-05-14T14:56:40.491Z,54.03
2023-05-14T15:01:44.051Z,54.00
2023-05-14T15:06:49.118Z,53.70
2023-05-14T15:11:52.766Z,54.93
2023-05-14T15:16:56.324Z,53.88
2023-05-14T15:22:01.299Z,54.07
2023-05-14T15:27:04.897Z,53.58
2023-05-14T15:32:08.902Z,53.48
2023-05-14T15:37:13.787Z,54.17
2023-05-14T15:42:17.315Z,54.45
2023-05-14T15:47:20.758Z,54.11
2023-05-14T15:52:26.081Z,54.30
2023-05-14T15:57:29.648Z,54.46
2023-05-14T16:02:33.543Z,53.76
2023-05-14T16:07:38.790Z,54.58
2023-05-14T16:12:42.324Z,54.35
2023-05-14T16:17:45.883Z,53.21
2023-05-14T16:22:50.931Z,54.15
2023-05-14T16:27:54.645Z,54.14
2023-05-14T16:32:58.211Z,53.61
2023-05-14T16:38:03.141Z,53.83
2023-05-14T16:43:06.912Z,53.75
2023-05-14T16:48:10.412Z,53.83
2023-05-14T16:53:15.358Z,53.92
2023-05-14T16:58:18.957Z,54.08
2023-05-14T17:03:22.382Z,55.39
2023-05-14T17:08:31.891Z,54.38
2023-05-14T17:13:35.870Z,55.69
2023-05-14T17:18:40.147Z,56.50
2023-05-14T17:23:45.101Z,55.97
2023-05-14T17:28:48.592Z,56.59
2023-05-14T17:33:52.364Z,56.71
2023-05-14T17:38:57.272Z,57.24
2023-05-14T17:44:00.822Z,57.15
2023-05-14T17:49:04.370Z,57.69
2023-05-14T17:54:09.380Z,57.52
2023-05-14T17:59:13.086Z,57.65
2023-05-14T18:04:16.634Z,58.19
2023-05-14T18:09:21.683Z,57.48
2023-05-14T18:14:25.265Z,58.35
2023-05-14T18:19:28.790Z,58.34
2023-05-14T18:24:33.719Z,58.34
2023-05-14T18:29:37.317Z,58.82
2023-05-14T18:34:40.841Z,59.20
2023-05-14T18:39:45.670Z,58.51
2023-05-14T18:44:49.187Z,58.63
2023-05-14T18:49:55.419Z,59.03
2023-05-14T18:55:00.393Z,59.73
2023-05-14T19:00:05.360Z,58.94
2023-05-14T19:05:09.613Z,59.75
2023-05-14T19:10:14.558Z,59.32
2023-05-14T19:15:18.212Z,59.89
2023-05-14T19:20:21.846Z,59.36
2023-05-14T19:25:27.118Z,60.04
2023-05-14T19:30:30.850Z,60.83
2023-05-14T19:35:34.340Z,60.21
2023-05-14T19:40:39.253Z,60.07
2023-05-14T19:45:42.915Z,60.05
2023-05-14T19:50:46.804Z,60.46
2023-05-14T19:55:51.631Z,60.32
2023-05-14T20:00:57.787Z,61.00
2023-05-14T20:06:01.330Z,61.05
2023-05-14T20:11:06.288Z,60.50
2023-05-14T20:16:09.875Z,61.02
2023-05-14T20:21:13.588Z,60.89
2023-05-14T20:26:18.421Z,60.94
2023-05-14T20:31:22.046Z,61.73
2023-05-14T20:36:26.291Z,61.08
2023-05-14T20:41:31.184Z,60.41
2023-05-14T20:46:34.849Z,60.71
2023-05-14T20:51:38.397Z,60.84
2023-05-14T20:56:43.292Z,61.55
2023-05-14T21:01:46.875Z,61.58
2023-05-14T21:06:50.400Z,61.66
2023-05-14T21:11:55.340Z,61.72
2023-05-14T21:16:58.836Z,61.36
2023-05-14T21:22:02.660Z,61.62
2023-05-14T21:27:07.763Z,60.91
2023-05-14T21:32:11.189Z,61.73
2023-05-14T21:37:14.734Z,62.35
2023-05-14T21:42:21.255Z,61.85
2023-05-14T21:47:24.832Z,61.60
2023-05-14T21:52:28.408Z,62.00
2023-05-14T21:57:34.672Z,60.83
2023-05-14T22:02:38.383Z,61.70
2023-05-14T22:07:42.243Z,62.38
2023-05-14T22:12:47.558Z,61.36
2023-05-14T22:17:51.160Z,60.90
2023-05-14T22:22:54.658Z,61.91
2023-05-14T22:27:59.652Z,61.20
2023-05-14T22:33:03.172Z,61.29
2023-05-14T22:38:06.649Z,61.64
2023-05-14T22:43:11.556Z,61.35
2023-05-14T22:48:15.009Z,61.41
2023-05-14T22:53:18.620Z,62.01
2023-05-14T22:58:23.477Z,61.00
2023-05-14T23:03:26.975Z,61.55
2023-05-14T23:08:30.454Z,62.06
2023-05-14T23:13:35.602Z,61.52
2023-05-14T23:18:39.291Z,62.41
2023-05-14T23:23:42.979Z,62.35
2023-05-14T23:28:48.097Z,61.60
2023-05-14T23:33:51.629Z,62.12
2023-05-14T23:38:55.081Z,61.76
2023-05-14T23:43:59.967Z,62.26
2023-05-14T23:49:03.465Z,61.00
2023-05-14T23:54:07.016Z,62.46
2023-05-14T23:59:13.157Z,62.18
